sensor_id;sensor_type;location;lat;lon;timestamp;P1;durP1;ratioP1;P2;durP2;ratioP2
12768;SDS011;6448;48.916;8.990;2024-02-04T00:00:55;0.32;;;0.32;;
12768;SDS011;6448;48.916;8.990;2024-02-04T00:01:55;0.40;;;0.40;;
12768;SDS011;6448;48.916;8.990;2024-02-04T00:02:57;0.40;;;0.40;;
12768;SDS011;6448;48.916;8.990;2024-02-04T00:03:58;0.40;;;0.40;;
12768;SDS011;6448;48.916;8.990;2024-02-04T00:05:00;0.40;;;0.40;;
12768;SDS011;6448;48.916;8.990;2024-02-04T00:06:01;0.30;;;0.30;;
12768;SDS011;6448;48.916;8.990;2024-02-04T00:07:03;0.43;;;0.43;;
12768;SDS011;6448;48.916;8.990;2024-02-04T00:08:04;1.13;;;0.50;;
12768;SDS011;6448;48.916;8.990;2024-02-04T00:09:06;0.50;;;0.40;;
12768;SDS011;6448;48.916;8.990;2024-02-04T00:10:07;0.35;;;0.35;;
12768;SDS011;6448;48.916;8.990;2024-02-04T00:11:10;0.40;;;0.40;;
12768;SDS011;6448;48.916;8.990;2024-02-04T00:12:12;0.40;;;0.40;;
12768;SDS011;6448;48.916;8.990;2024-02-04T00:13:13;0.40;;;0.40;;
12768;SDS011;6448;48.916;8.990;2024-02-04T00:14:14;0.30;;;0.30;;
12768;SDS011;6448;48.916;8.990;2024-02-04T00:15:15;0.30;;;0.30;;
12768;SDS011;6448;48.916;8.990;2024-02-04T00:16:17;0.30;;;0.30;;
12768;SDS011;6448;48.916;8.990;2024-02-04T00:17:18;0.43;;;0.43;;
12768;SDS011;6448;48.916;8.990;2024-02-04T00:18:19;0.38;;;0.38;;
12768;SDS011;6448;48.916;8.990;2024-02-04T00:19:20;0.40;;;0.40;;
12768;SDS011;6448;48.916;8.990;2024-02-04T00:20:22;0.50;;;0.50;;
12768;SDS011;6448;48.916;8.990;2024-02-04T00:21:24;0.30;;;0.30;;
12768;SDS011;6448;48.916;8.990;2024-02-04T00:22:26;0.30;;;0.30;;
12768;SDS011;6448;48.916;8.990;2024-02-04T00:23:27;0.47;;;0.40;;
12768;SDS011;6448;48.916;8.990;2024-02-04T00:24:29;0.40;;;0.40;;
12768;SDS011;6448;48.916;8.990;2024-02-04T00:25:30;0.30;;;0.30;;
12768;SDS011;6448;48.916;8.990;2024-02-04T00:26:33;0.40;;;0.40;;
12768;SDS011;6448;48.916;8.990;2024-02-04T00:27:34;0.38;;;0.38;;
12768;SDS011;6448;48.916;8.990;2024-02-04T00:28:35;0.30;;;0.30;;
12768;SDS011;6448;48.916;8.990;2024-02-04T00:29:36;0.40;;;0.40;;
12768;SDS011;6448;48.916;8.990;2024-02-04T00:30:38;0.22;;;0.22;;
12768;SDS011;6448;48.916;8.990;2024-02-04T00:31:38;0.30;;;0.30;;
12768;SDS011;6448;48.916;8.990;2024-02-04T00:32:40;0.30;;;0.30;;
12768;SDS011;6448;48.916;8.990;2024-02-04T00:33:41;0.30;;;0.30;;
12768;SDS011;6448;48.916;8.990;2024-02-04T00:34:43;0.30;;;0.30;;
12768;SDS011;6448;48.916;8.990;2024-02-04T00:35:44;0.20;;;0.20;;
12768;SDS011;6448;48.916;8.990;2024-02-04T00:36:45;0.28;;;0.28;;
12768;SDS011;6448;48.916;8.990;2024-02-04T00:37:46;0.40;;;0.40;;
12768;SDS011;6448;48.916;8.990;2024-02-04T00:38:47;0.40;;;0.40;;
12768;SDS011;6448;48.916;8.990;2024-02-04T00:39:49;0.30;;;0.30;;
12768;SDS011;6448;48.916;8.990;2024-02-04T00:40:50;0.20;;;0.20;;
12768;SDS011;6448;48.916;8.990;2024-02-04T00:41:53;0.20;;;0.20;;
12768;SDS011;6448;48.916;8.990;2024-02-04T00:42:54;0.40;;;0.40;;
12768;SDS011;6448;48.916;8.990;2024-02-04T00:43:56;0.20;;;0.20;;
12768;SDS011;6448;48.916;8.990;2024-02-04T00:44:57;0.30;;;0.30;;
12768;SDS011;6448;48.916;8.990;2024-02-04T00:45:58;0.38;;;0.38;;
12768;SDS011;6448;48.916;8.990;2024-02-04T00:47:01;0.70;;;0.70;;
12768;SDS011;6448;48.916;8.990;2024-02-04T00:48:03;0.40;;;0.40;;
12768;SDS011;6448;48.916;8.990;2024-02-04T00:49:04;0.35;;;0.35;;
12768;SDS011;6448;48.916;8.990;2024-02-04T00:50:07;0.50;;;0.50;;
12768;SDS011;6448;48.916;8.990;2024-02-04T00:51:08;0.30;;;0.30;;
12768;SDS011;6448;48.916;8.990;2024-02-04T00:52:10;0.60;;;0.40;;
12768;SDS011;6448;48.916;8.990;2024-02-04T00:53:11;0.30;;;0.30;;
12768;SDS011;6448;48.916;8.990;2024-02-04T00:54:13;0.40;;;0.40;;
12768;SDS011;6448;48.916;8.990;2024-02-04T00:55:14;0.30;;;0.30;;
12768;SDS011;6448;48.916;8.990;2024-02-04T00:56:15;0.40;;;0.40;;
12768;SDS011;6448;48.916;8.990;2024-02-04T00:57:17;0.30;;;0.30;;
12768;SDS011;6448;48.916;8.990;2024-02-04T00:58:19;0.30;;;0.30;;
12768;SDS011;6448;48.916;8.990;2024-02-04T00:59:20;0.22;;;0.22;;
12768;SDS011;6448;48.916;8.990;2024-02-04T01:00:22;0.30;;;0.30;;
12768;SDS011;6448;48.916;8.990;2024-02-04T01:01:22;0.40;;;0.40;;
12768;SDS011;6448;48.916;8.990;2024-02-04T01:02:23;0.25;;;0.25;;
12768;SDS011;6448;48.916;8.990;2024-02-04T01:03:25;0.40;;;0.40;;
12768;SDS011;6448;48.916;8.990;2024-02-04T01:04:26;0.30;;;0.30;;
12768;SDS011;6448;48.916;8.990;2024-02-04T01:05:27;0.50;;;0.50;;
12768;SDS011;6448;48.916;8.990;2024-02-04T01:06:28;0.40;;;0.40;;
12768;SDS011;6448;48.916;8.990;2024-02-04T01:07:30;0.30;;;0.30;;
12768;SDS011;6448;48.916;8.990;2024-02-04T01:08:31;0.20;;;0.20;;
12768;SDS011;6448;48.916;8.990;2024-02-04T01:09:34;0.30;;;0.30;;
12768;SDS011;6448;48.916;8.990;2024-02-04T01:10:35;0.40;;;0.40;;
12768;SDS011;6448;48.916;8.990;2024-02-04T01:11:37;0.40;;;0.40;;
12768;SDS011;6448;48.916;8.990;2024-02-04T01:12:39;0.30;;;0.30;;
12768;SDS011;6448;48.916;8.990;2024-02-04T01:13:41;0.30;;;0.30;;
12768;SDS011;6448;48.916;8.990;2024-02-04T01:14:42;0.30;;;0.30;;
12768;SDS011;6448;48.916;8.990;2024-02-04T01:15:44;0.30;;;0.30;;
12768;SDS011;6448;48.916;8.990;2024-02-04T01:16:45;0.20;;;0.20;;
12768;SDS011;6448;48.916;8.990;2024-02-04T01:17:47;0.30;;;0.30;;
12768;SDS011;6448;48.916;8.990;2024-02-04T01:18:47;0.25;;;0.25;;
12768;SDS011;6448;48.916;8.990;2024-02-04T01:19:49;0.30;;;0.30;;
12768;SDS011;6448;48.916;8.990;2024-02-04T01:20:50;0.30;;;0.30;;
12768;SDS011;6448;48.916;8.990;2024-02-04T01:21:52;0.20;;;0.20;;
12768;SDS011;6448;48.916;8.990;2024-02-04T01:22:52;0.20;;;0.20;;
12768;SDS011;6448;48.916;8.990;2024-02-04T01:23:54;0.20;;;0.20;;
12768;SDS011;6448;48.916;8.990;2024-02-04T01:24:55;0.20;;;0.20;;
12768;SDS011;6448;48.916;8.990;2024-02-04T01:25:57;0.30;;;0.30;;
12768;SDS011;6448;48.916;8.990;2024-02-04T01:26:58;0.25;;;0.25;;
12768;SDS011;6448;48.916;8.990;2024-02-04T01:28:01;0.25;;;0.25;;
12768;SDS011;6448;48.916;8.990;2024-02-04T01:29:02;0.30;;;0.30;;
12768;SDS011;6448;48.916;8.990;2024-02-04T01:30:06;0.30;;;0.30;;
12768;SDS011;6448;48.916;8.990;2024-02-04T01:31:09;0.22;;;0.22;;
12768;SDS011;6448;48.916;8.990;2024-02-04T01:32:11;0.20;;;0.20;;
12768;SDS011;6448;48.916;8.990;2024-02-04T01:33:12;0.20;;;0.20;;
12768;SDS011;6448;48.916;8.990;2024-02-04T01:34:13;0.20;;;0.20;;
12768;SDS011;6448;48.916;8.990;2024-02-04T01:35:14;0.30;;;0.30;;
12768;SDS011;6448;48.916;8.990;2024-02-04T01:36:16;0.30;;;0.30;;
12768;SDS011;6448;48.916;8.990;2024-02-04T01:37:17;0.28;;;0.28;;
12768;SDS011;6448;48.916;8.990;2024-02-04T01:38:19;0.22;;;0.22;;
12768;SDS011;6448;48.916;8.990;2024-02-04T01:39:20;0.20;;;0.20;;
12768;SDS011;6448;48.916;8.990;2024-02-04T01:40:21;0.20;;;0.20;;
12768;SDS011;6448;48.916;8.990;2024-02-04T01:41:22;0.20;;;0.20;;
12768;SDS011;6448;48.916;8.990;2024-02-04T01:42:26;0.63;;;0.30;;
12768;SDS011;6448;48.916;8.990;2024-02-04T01:43:28;0.30;;;0.30;;
12768;SDS011;6448;48.916;8.990;2024-02-04T01:44:31;0.20;;;0.20;;
12768;SDS011;6448;48.916;8.990;2024-02-04T01:45:32;0.20;;;0.20;;
12768;SDS011;6448;48.916;8.990;2024-02-04T01:46:32;0.30;;;0.30;;
12768;SDS011;6448;48.916;8.990;2024-02-04T01:47:35;0.20;;;0.20;;
12768;SDS011;6448;48.916;8.990;2024-02-04T01:48:36;0.20;;;0.20;;
12768;SDS011;6448;48.916;8.990;2024-02-04T01:49:38;0.20;;;0.20;;
12768;SDS011;6448;48.916;8.990;2024-02-04T01:50:39;0.17;;;0.17;;
12768;SDS011;6448;48.916;8.990;2024-02-04T01:51:40;0.28;;;0.28;;
12768;SDS011;6448;48.916;8.990;2024-02-04T01:52:42;0.30;;;0.22;;
12768;SDS011;6448;48.916;8.990;2024-02-04T01:53:44;0.30;;;0.30;;
12768;SDS011;6448;48.916;8.990;2024-02-04T01:54:47;0.32;;;0.32;;
12768;SDS011;6448;48.916;8.990;2024-02-04T01:55:49;0.30;;;0.30;;
12768;SDS011;6448;48.916;8.990;2024-02-04T01:56:51;0.40;;;0.40;;
12768;SDS011;6448;48.916;8.990;2024-02-04T01:57:53;0.40;;;0.40;;
12768;SDS011;6448;48.916;8.990;2024-02-04T01:58:56;0.30;;;0.30;;
12768;SDS011;6448;48.916;8.990;2024-02-04T01:59:59;0.32;;;0.32;;
12768;SDS011;6448;48.916;8.990;2024-02-04T02:01:05;0.20;;;0.20;;
12768;SDS011;6448;48.916;8.990;2024-02-04T02:02:06;0.20;;;0.20;;
12768;SDS011;6448;48.916;8.990;2024-02-04T02:03:08;0.22;;;0.22;;
12768;SDS011;6448;48.916;8.990;2024-02-04T02:04:12;0.30;;;0.30;;
12768;SDS011;6448;48.916;8.990;2024-02-04T02:05:14;0.30;;;0.30;;
12768;SDS011;6448;48.916;8.990;2024-02-04T02:06:15;0.30;;;0.30;;
12768;SDS011;6448;48.916;8.990;2024-02-04T02:07:17;0.28;;;0.28;;
12768;SDS011;6448;48.916;8.990;2024-02-04T02:08:20;0.30;;;0.30;;
12768;SDS011;6448;48.916;8.990;2024-02-04T02:09:22;0.30;;;0.30;;
12768;SDS011;6448;48.916;8.990;2024-02-04T02:10:22;0.20;;;0.20;;
12768;SDS011;6448;48.916;8.990;2024-02-04T02:11:28;0.28;;;0.28;;
12768;SDS011;6448;48.916;8.990;2024-02-04T02:12:39;0.30;;;0.30;;
12768;SDS011;6448;48.916;8.990;2024-02-04T02:13:50;0.20;;;0.20;;
12768;SDS011;6448;48.916;8.990;2024-02-04T02:14:59;0.20;;;0.20;;
12768;SDS011;6448;48.916;8.990;2024-02-04T02:16:07;0.40;;;0.30;;
12768;SDS011;6448;48.916;8.990;2024-02-04T02:17:12;0.25;;;0.25;;
12768;SDS011;6448;48.916;8.990;2024-02-04T02:18:19;0.22;;;0.22;;
12768;SDS011;6448;48.916;8.990;2024-02-04T02:19:33;0.30;;;0.30;;
12768;SDS011;6448;48.916;8.990;2024-02-04T02:20:48;0.28;;;0.28;;
12768;SDS011;6448;48.916;8.990;2024-02-04T02:22:04;0.20;;;0.20;;
12768;SDS011;6448;48.916;8.990;2024-02-04T02:23:19;0.20;;;0.20;;
12768;SDS011;6448;48.916;8.990;2024-02-04T02:24:32;0.20;;;0.20;;
12768;SDS011;6448;48.916;8.990;2024-02-04T02:25:36;0.22;;;0.22;;
12768;SDS011;6448;48.916;8.990;2024-02-04T02:26:37;0.30;;;0.30;;
12768;SDS011;6448;48.916;8.990;2024-02-04T02:27:47;0.30;;;0.30;;
12768;SDS011;6448;48.916;8.990;2024-02-04T02:28:49;0.30;;;0.30;;
12768;SDS011;6448;48.916;8.990;2024-02-04T02:29:51;0.20;;;0.20;;
12768;SDS011;6448;48.916;8.990;2024-02-04T02:30:52;0.23;;;0.23;;
12768;SDS011;6448;48.916;8.990;2024-02-04T02:31:53;0.30;;;0.30;;
12768;SDS011;6448;48.916;8.990;2024-02-04T02:32:54;0.40;;;0.40;;
12768;SDS011;6448;48.916;8.990;2024-02-04T02:33:56;0.38;;;0.38;;
12768;SDS011;6448;48.916;8.990;2024-02-04T02:34:57;0.38;;;0.38;;
12768;SDS011;6448;48.916;8.990;2024-02-04T02:35:59;0.28;;;0.28;;
12768;SDS011;6448;48.916;8.990;2024-02-04T02:37:08;0.30;;;0.30;;
12768;SDS011;6448;48.916;8.990;2024-02-04T02:38:23;0.35;;;0.35;;
12768;SDS011;6448;48.916;8.990;2024-02-04T02:39:29;0.30;;;0.30;;
12768;SDS011;6448;48.916;8.990;2024-02-04T02:40:39;0.40;;;0.40;;
12768;SDS011;6448;48.916;8.990;2024-02-04T02:41:45;0.40;;;0.40;;
12768;SDS011;6448;48.916;8.990;2024-02-04T02:42:51;0.30;;;0.30;;
12768;SDS011;6448;48.916;8.990;2024-02-04T02:43:53;0.35;;;0.35;;
12768;SDS011;6448;48.916;8.990;2024-02-04T02:44:56;0.47;;;0.47;;
12768;SDS011;6448;48.916;8.990;2024-02-04T02:45:57;0.30;;;0.30;;
12768;SDS011;6448;48.916;8.990;2024-02-04T02:47:00;0.32;;;0.32;;
12768;SDS011;6448;48.916;8.990;2024-02-04T02:48:03;0.22;;;0.22;;
12768;SDS011;6448;48.916;8.990;2024-02-04T02:49:06;0.30;;;0.30;;
12768;SDS011;6448;48.916;8.990;2024-02-04T02:50:07;0.30;;;0.30;;
12768;SDS011;6448;48.916;8.990;2024-02-04T02:51:10;0.40;;;0.40;;
12768;SDS011;6448;48.916;8.990;2024-02-04T02:52:11;0.30;;;0.30;;
12768;SDS011;6448;48.916;8.990;2024-02-04T02:53:12;0.30;;;0.30;;
12768;SDS011;6448;48.916;8.990;2024-02-04T02:54:13;0.30;;;0.30;;
12768;SDS011;6448;48.916;8.990;2024-02-04T02:55:16;0.28;;;0.28;;
12768;SDS011;6448;48.916;8.990;2024-02-04T02:56:17;0.20;;;0.20;;
12768;SDS011;6448;48.916;8.990;2024-02-04T02:57:19;0.30;;;0.30;;
12768;SDS011;6448;48.916;8.990;2024-02-04T02:58:20;0.30;;;0.30;;
12768;SDS011;6448;48.916;8.990;2024-02-04T02:59:22;0.20;;;0.20;;
12768;SDS011;6448;48.916;8.990;2024-02-04T03:00:23;0.37;;;0.37;;
12768;SDS011;6448;48.916;8.990;2024-02-04T03:01:24;0.25;;;0.25;;
12768;SDS011;6448;48.916;8.990;2024-02-04T03:02:25;0.20;;;0.20;;
12768;SDS011;6448;48.916;8.990;2024-02-04T03:03:27;0.30;;;0.30;;
12768;SDS011;6448;48.916;8.990;2024-02-04T03:04:28;0.30;;;0.30;;
12768;SDS011;6448;48.916;8.990;2024-02-04T03:05:30;0.28;;;0.28;;
12768;SDS011;6448;48.916;8.990;2024-02-04T03:06:31;0.30;;;0.30;;
12768;SDS011;6448;48.916;8.990;2024-02-04T03:07:32;0.30;;;0.30;;
12768;SDS011;6448;48.916;8.990;2024-02-04T03:08:34;0.22;;;0.22;;
12768;SDS011;6448;48.916;8.990;2024-02-04T03:09:35;0.20;;;0.20;;
12768;SDS011;6448;48.916;8.990;2024-02-04T03:10:37;0.25;;;0.25;;
12768;SDS011;6448;48.916;8.990;2024-02-04T03:11:38;0.20;;;0.20;;
12768;SDS011;6448;48.916;8.990;2024-02-04T03:12:39;0.20;;;0.20;;
12768;SDS011;6448;48.916;8.990;2024-02-04T03:13:41;0.20;;;0.20;;
12768;SDS011;6448;48.916;8.990;2024-02-04T03:14:42;0.20;;;0.20;;
12768;SDS011;6448;48.916;8.990;2024-02-04T03:15:43;0.20;;;0.20;;
12768;SDS011;6448;48.916;8.990;2024-02-04T03:16:44;0.20;;;0.20;;
12768;SDS011;6448;48.916;8.990;2024-02-04T03:17:46;0.20;;;0.20;;
12768;SDS011;6448;48.916;8.990;2024-02-04T03:18:47;0.20;;;0.20;;
12768;SDS011;6448;48.916;8.990;2024-02-04T03:19:49;0.30;;;0.30;;
12768;SDS011;6448;48.916;8.990;2024-02-04T03:20:51;0.20;;;0.20;;
12768;SDS011;6448;48.916;8.990;2024-02-04T03:21:53;0.20;;;0.20;;
12768;SDS011;6448;48.916;8.990;2024-02-04T03:22:54;0.50;;;0.50;;
12768;SDS011;6448;48.916;8.990;2024-02-04T03:23:56;0.80;;;0.80;;
12768;SDS011;6448;48.916;8.990;2024-02-04T03:24:57;0.70;;;0.70;;
12768;SDS011;6448;48.916;8.990;2024-02-04T03:26:00;0.43;;;0.43;;
12768;SDS011;6448;48.916;8.990;2024-02-04T03:27:01;0.47;;;0.47;;
12768;SDS011;6448;48.916;8.990;2024-02-04T03:28:03;0.60;;;0.60;;
12768;SDS011;6448;48.916;8.990;2024-02-04T03:29:04;0.40;;;0.40;;
12768;SDS011;6448;48.916;8.990;2024-02-04T03:30:06;0.30;;;0.30;;
12768;SDS011;6448;48.916;8.990;2024-02-04T03:31:08;0.40;;;0.40;;
12768;SDS011;6448;48.916;8.990;2024-02-04T03:32:10;0.63;;;0.63;;
12768;SDS011;6448;48.916;8.990;2024-02-04T03:33:12;1.00;;;1.00;;
12768;SDS011;6448;48.916;8.990;2024-02-04T03:34:13;0.98;;;0.98;;
12768;SDS011;6448;48.916;8.990;2024-02-04T03:35:16;0.45;;;0.45;;
12768;SDS011;6448;48.916;8.990;2024-02-04T03:36:18;0.40;;;0.40;;
12768;SDS011;6448;48.916;8.990;2024-02-04T03:37:22;0.45;;;0.45;;
12768;SDS011;6448;48.916;8.990;2024-02-04T03:38:23;0.60;;;0.60;;
12768;SDS011;6448;48.916;8.990;2024-02-04T03:39:26;0.70;;;0.70;;
12768;SDS011;6448;48.916;8.990;2024-02-04T03:40:27;0.80;;;0.80;;
12768;SDS011;6448;48.916;8.990;2024-02-04T03:41:30;0.98;;;0.98;;
12768;SDS011;6448;48.916;8.990;2024-02-04T03:42:32;1.20;;;1.10;;
12768;SDS011;6448;48.916;8.990;2024-02-04T03:43:35;0.60;;;0.60;;
12768;SDS011;6448;48.916;8.990;2024-02-04T03:44:37;0.68;;;0.68;;
12768;SDS011;6448;48.916;8.990;2024-02-04T03:45:39;1.52;;;1.42;;
12768;SDS011;6448;48.916;8.990;2024-02-04T03:46:40;1.50;;;1.40;;
12768;SDS011;6448;48.916;8.990;2024-02-04T03:47:43;1.50;;;1.40;;
12768;SDS011;6448;48.916;8.990;2024-02-04T03:48:45;1.42;;;1.33;;
12768;SDS011;6448;48.916;8.990;2024-02-04T03:49:47;1.00;;;1.00;;
12768;SDS011;6448;48.916;8.990;2024-02-04T03:50:48;0.88;;;0.88;;
12768;SDS011;6448;48.916;8.990;2024-02-04T03:51:49;0.80;;;0.80;;
12768;SDS011;6448;48.916;8.990;2024-02-04T03:52:51;0.57;;;0.57;;
12768;SDS011;6448;48.916;8.990;2024-02-04T03:53:51;0.32;;;0.32;;
12768;SDS011;6448;48.916;8.990;2024-02-04T03:54:53;0.60;;;0.60;;
12768;SDS011;6448;48.916;8.990;2024-02-04T03:55:54;0.43;;;0.43;;
12768;SDS011;6448;48.916;8.990;2024-02-04T03:56:58;0.50;;;0.50;;
12768;SDS011;6448;48.916;8.990;2024-02-04T03:57:58;0.40;;;0.40;;
12768;SDS011;6448;48.916;8.990;2024-02-04T03:59:00;0.77;;;0.77;;
12768;SDS011;6448;48.916;8.990;2024-02-04T04:00:01;0.50;;;0.50;;
12768;SDS011;6448;48.916;8.990;2024-02-04T04:01:12;0.60;;;0.60;;
12768;SDS011;6448;48.916;8.990;2024-02-04T04:02:16;0.80;;;0.80;;
12768;SDS011;6448;48.916;8.990;2024-02-04T04:03:16;0.90;;;0.90;;
12768;SDS011;6448;48.916;8.990;2024-02-04T04:04:18;1.20;;;1.10;;
12768;SDS011;6448;48.916;8.990;2024-02-04T04:05:19;1.33;;;1.23;;
12768;SDS011;6448;48.916;8.990;2024-02-04T04:06:21;1.15;;;1.05;;
12768;SDS011;6448;48.916;8.990;2024-02-04T04:07:21;0.77;;;0.77;;
12768;SDS011;6448;48.916;8.990;2024-02-04T04:08:23;0.70;;;0.70;;
12768;SDS011;6448;48.916;8.990;2024-02-04T04:09:24;0.50;;;0.50;;
12768;SDS011;6448;48.916;8.990;2024-02-04T04:10:26;0.60;;;0.60;;
12768;SDS011;6448;48.916;8.990;2024-02-04T04:11:27;0.63;;;0.63;;
12768;SDS011;6448;48.916;8.990;2024-02-04T04:12:30;0.80;;;0.80;;
12768;SDS011;6448;48.916;8.990;2024-02-04T04:13:30;0.90;;;0.90;;
12768;SDS011;6448;48.916;8.990;2024-02-04T04:14:34;0.63;;;0.63;;
12768;SDS011;6448;48.916;8.990;2024-02-04T04:15:35;0.80;;;0.80;;
12768;SDS011;6448;48.916;8.990;2024-02-04T04:16:37;0.70;;;0.70;;
12768;SDS011;6448;48.916;8.990;2024-02-04T04:17:37;0.80;;;0.80;;
12768;SDS011;6448;48.916;8.990;2024-02-04T04:18:39;1.00;;;1.00;;
12768;SDS011;6448;48.916;8.990;2024-02-04T04:19:40;1.00;;;1.00;;
12768;SDS011;6448;48.916;8.990;2024-02-04T04:20:42;0.80;;;0.80;;
12768;SDS011;6448;48.916;8.990;2024-02-04T04:21:42;0.80;;;0.80;;
12768;SDS011;6448;48.916;8.990;2024-02-04T04:22:44;0.90;;;0.90;;
12768;SDS011;6448;48.916;8.990;2024-02-04T04:23:45;0.75;;;0.75;;
12768;SDS011;6448;48.916;8.990;2024-02-04T04:24:46;0.43;;;0.43;;
12768;SDS011;6448;48.916;8.990;2024-02-04T04:25:47;0.50;;;0.50;;
12768;SDS011;6448;48.916;8.990;2024-02-04T04:26:49;0.30;;;0.30;;
12768;SDS011;6448;48.916;8.990;2024-02-04T04:27:51;0.40;;;0.40;;
12768;SDS011;6448;48.916;8.990;2024-02-04T04:28:53;0.40;;;0.40;;
12768;SDS011;6448;48.916;8.990;2024-02-04T04:29:53;0.38;;;0.38;;
12768;SDS011;6448;48.916;8.990;2024-02-04T04:30:55;0.43;;;0.43;;
12768;SDS011;6448;48.916;8.990;2024-02-04T04:31:56;0.80;;;0.80;;
12768;SDS011;6448;48.916;8.990;2024-02-04T04:32:58;0.70;;;0.70;;
12768;SDS011;6448;48.916;8.990;2024-02-04T04:33:59;0.82;;;0.60;;
12768;SDS011;6448;48.916;8.990;2024-02-04T04:35:00;0.90;;;0.50;;
12768;SDS011;6448;48.916;8.990;2024-02-04T04:36:01;0.73;;;0.73;;
12768;SDS011;6448;48.916;8.990;2024-02-04T04:37:03;0.70;;;0.70;;
12768;SDS011;6448;48.916;8.990;2024-02-04T04:38:05;0.80;;;0.80;;
12768;SDS011;6448;48.916;8.990;2024-02-04T04:39:06;0.60;;;0.60;;
12768;SDS011;6448;48.916;8.990;2024-02-04T04:40:08;0.80;;;0.80;;
12768;SDS011;6448;48.916;8.990;2024-02-04T04:41:10;1.02;;;1.00;;
12768;SDS011;6448;48.916;8.990;2024-02-04T04:42:11;1.20;;;1.10;;
12768;SDS011;6448;48.916;8.990;2024-02-04T04:43:13;0.90;;;0.90;;
12768;SDS011;6448;48.916;8.990;2024-02-04T04:44:15;1.30;;;1.20;;
12768;SDS011;6448;48.916;8.990;2024-02-04T04:45:16;1.80;;;1.40;;
12768;SDS011;6448;48.916;8.990;2024-02-04T04:46:18;1.20;;;1.10;;
12768;SDS011;6448;48.916;8.990;2024-02-04T04:47:20;0.70;;;0.70;;
12768;SDS011;6448;48.916;8.990;2024-02-04T04:48:20;0.70;;;0.70;;
12768;SDS011;6448;48.916;8.990;2024-02-04T04:49:22;0.80;;;0.80;;
12768;SDS011;6448;48.916;8.990;2024-02-04T04:50:23;0.60;;;0.60;;
12768;SDS011;6448;48.916;8.990;2024-02-04T04:51:24;0.40;;;0.40;;
12768;SDS011;6448;48.916;8.990;2024-02-04T04:52:25;0.30;;;0.30;;
12768;SDS011;6448;48.916;8.990;2024-02-04T04:53:27;0.60;;;0.60;;
12768;SDS011;6448;48.916;8.990;2024-02-04T04:54:28;0.50;;;0.50;;
12768;SDS011;6448;48.916;8.990;2024-02-04T04:55:29;0.40;;;0.40;;
12768;SDS011;6448;48.916;8.990;2024-02-04T04:56:30;0.30;;;0.30;;
12768;SDS011;6448;48.916;8.990;2024-02-04T04:57:39;0.20;;;0.20;;
12768;SDS011;6448;48.916;8.990;2024-02-04T04:58:41;0.35;;;0.35;;
12768;SDS011;6448;48.916;8.990;2024-02-04T04:59:42;0.50;;;0.50;;
12768;SDS011;6448;48.916;8.990;2024-02-04T05:00:44;0.43;;;0.43;;
12768;SDS011;6448;48.916;8.990;2024-02-04T05:01:45;0.47;;;0.47;;
12768;SDS011;6448;48.916;8.990;2024-02-04T05:02:47;0.50;;;0.50;;
12768;SDS011;6448;48.916;8.990;2024-02-04T05:03:48;0.80;;;0.80;;
12768;SDS011;6448;48.916;8.990;2024-02-04T05:04:50;0.73;;;0.73;;
12768;SDS011;6448;48.916;8.990;2024-02-04T05:05:51;0.80;;;0.80;;
12768;SDS011;6448;48.916;8.990;2024-02-04T05:06:52;1.20;;;1.10;;
12768;SDS011;6448;48.916;8.990;2024-02-04T05:07:53;1.60;;;1.50;;
12768;SDS011;6448;48.916;8.990;2024-02-04T05:08:55;1.70;;;1.40;;
12768;SDS011;6448;48.916;8.990;2024-02-04T05:09:56;1.38;;;1.27;;
12768;SDS011;6448;48.916;8.990;2024-02-04T05:10:57;0.63;;;0.63;;
12768;SDS011;6448;48.916;8.990;2024-02-04T05:11:58;0.40;;;0.40;;
12768;SDS011;6448;48.916;8.990;2024-02-04T05:13:00;0.25;;;0.25;;
12768;SDS011;6448;48.916;8.990;2024-02-04T05:14:02;0.30;;;0.30;;
12768;SDS011;6448;48.916;8.990;2024-02-04T05:15:04;0.30;;;0.30;;
12768;SDS011;6448;48.916;8.990;2024-02-04T05:16:06;0.30;;;0.30;;
12768;SDS011;6448;48.916;8.990;2024-02-04T05:17:07;0.40;;;0.40;;
12768;SDS011;6448;48.916;8.990;2024-02-04T05:18:09;0.45;;;0.45;;
12768;SDS011;6448;48.916;8.990;2024-02-04T05:19:11;0.30;;;0.30;;
12768;SDS011;6448;48.916;8.990;2024-02-04T05:20:12;0.20;;;0.20;;
12768;SDS011;6448;48.916;8.990;2024-02-04T05:21:13;0.20;;;0.20;;
12768;SDS011;6448;48.916;8.990;2024-02-04T05:22:14;0.30;;;0.30;;
12768;SDS011;6448;48.916;8.990;2024-02-04T05:23:16;0.30;;;0.30;;
12768;SDS011;6448;48.916;8.990;2024-02-04T05:24:17;0.40;;;0.40;;
12768;SDS011;6448;48.916;8.990;2024-02-04T05:25:18;0.30;;;0.30;;
12768;SDS011;6448;48.916;8.990;2024-02-04T05:26:19;0.32;;;0.32;;
12768;SDS011;6448;48.916;8.990;2024-02-04T05:27:21;0.30;;;0.30;;
12768;SDS011;6448;48.916;8.990;2024-02-04T05:28:22;0.30;;;0.30;;
12768;SDS011;6448;48.916;8.990;2024-02-04T05:29:25;0.40;;;0.40;;
12768;SDS011;6448;48.916;8.990;2024-02-04T05:30:25;0.40;;;0.40;;
12768;SDS011;6448;48.916;8.990;2024-02-04T05:31:27;0.20;;;0.20;;
12768;SDS011;6448;48.916;8.990;2024-02-04T05:32:28;0.38;;;0.38;;
12768;SDS011;6448;48.916;8.990;2024-02-04T05:33:30;0.20;;;0.20;;
12768;SDS011;6448;48.916;8.990;2024-02-04T05:34:30;0.20;;;0.20;;
12768;SDS011;6448;48.916;8.990;2024-02-04T05:35:34;0.20;;;0.20;;
12768;SDS011;6448;48.916;8.990;2024-02-04T05:36:37;0.10;;;0.10;;
12768;SDS011;6448;48.916;8.990;2024-02-04T05:37:39;0.28;;;0.28;;
12768;SDS011;6448;48.916;8.990;2024-02-04T05:38:42;0.30;;;0.30;;
12768;SDS011;6448;48.916;8.990;2024-02-04T05:39:45;0.20;;;0.20;;
12768;SDS011;6448;48.916;8.990;2024-02-04T05:40:45;0.20;;;0.20;;
12768;SDS011;6448;48.916;8.990;2024-02-04T05:41:47;0.10;;;0.10;;
12768;SDS011;6448;48.916;8.990;2024-02-04T05:42:48;0.20;;;0.20;;
12768;SDS011;6448;48.916;8.990;2024-02-04T05:43:49;0.30;;;0.30;;
12768;SDS011;6448;48.916;8.990;2024-02-04T05:44:51;0.30;;;0.30;;
12768;SDS011;6448;48.916;8.990;2024-02-04T05:45:53;0.20;;;0.20;;
12768;SDS011;6448;48.916;8.990;2024-02-04T05:46:55;0.10;;;0.10;;
12768;SDS011;6448;48.916;8.990;2024-02-04T05:47:57;0.30;;;0.30;;
12768;SDS011;6448;48.916;8.990;2024-02-04T05:48:57;0.22;;;0.22;;
12768;SDS011;6448;48.916;8.990;2024-02-04T05:49:58;0.20;;;0.20;;
12768;SDS011;6448;48.916;8.990;2024-02-04T05:51:00;0.30;;;0.30;;
12768;SDS011;6448;48.916;8.990;2024-02-04T05:52:01;0.30;;;0.30;;
12768;SDS011;6448;48.916;8.990;2024-02-04T05:53:01;0.30;;;0.30;;
12768;SDS011;6448;48.916;8.990;2024-02-04T05:54:03;0.32;;;0.32;;
12768;SDS011;6448;48.916;8.990;2024-02-04T05:55:05;0.30;;;0.30;;
12768;SDS011;6448;48.916;8.990;2024-02-04T05:56:08;0.20;;;0.20;;
12768;SDS011;6448;48.916;8.990;2024-02-04T05:57:08;0.30;;;0.30;;
12768;SDS011;6448;48.916;8.990;2024-02-04T05:58:11;0.30;;;0.30;;
12768;SDS011;6448;48.916;8.990;2024-02-04T05:59:14;0.20;;;0.20;;
12768;SDS011;6448;48.916;8.990;2024-02-04T06:00:17;0.40;;;0.40;;
12768;SDS011;6448;48.916;8.990;2024-02-04T06:01:19;0.30;;;0.30;;
12768;SDS011;6448;48.916;8.990;2024-02-04T06:02:20;0.20;;;0.20;;
12768;SDS011;6448;48.916;8.990;2024-02-04T06:03:23;0.20;;;0.20;;
12768;SDS011;6448;48.916;8.990;2024-02-04T06:04:23;0.20;;;0.20;;
12768;SDS011;6448;48.916;8.990;2024-02-04T06:05:25;0.70;;;0.20;;
12768;SDS011;6448;48.916;8.990;2024-02-04T06:06:26;0.27;;;0.27;;
12768;SDS011;6448;48.916;8.990;2024-02-04T06:07:28;0.28;;;0.28;;
12768;SDS011;6448;48.916;8.990;2024-02-04T06:08:29;0.20;;;0.20;;
12768;SDS011;6448;48.916;8.990;2024-02-04T06:09:29;0.20;;;0.20;;
12768;SDS011;6448;48.916;8.990;2024-02-04T06:10:32;0.15;;;0.15;;
12768;SDS011;6448;48.916;8.990;2024-02-04T06:11:33;0.20;;;0.20;;
12768;SDS011;6448;48.916;8.990;2024-02-04T06:12:35;0.30;;;0.25;;
12768;SDS011;6448;48.916;8.990;2024-02-04T06:13:36;0.15;;;0.15;;
12768;SDS011;6448;48.916;8.990;2024-02-04T06:14:38;0.20;;;0.20;;
12768;SDS011;6448;48.916;8.990;2024-02-04T06:15:42;0.20;;;0.20;;
12768;SDS011;6448;48.916;8.990;2024-02-04T06:16:43;0.20;;;0.20;;
12768;SDS011;6448;48.916;8.990;2024-02-04T06:17:44;0.20;;;0.20;;
12768;SDS011;6448;48.916;8.990;2024-02-04T06:18:45;0.30;;;0.30;;
12768;SDS011;6448;48.916;8.990;2024-02-04T06:19:47;0.20;;;0.20;;